sensor_id;sensor_type;location;lat;lon;timestamp;temperature;humidity
34833;DHT22;55941;50.800;4.342;2023-02-21T00:00:55;8.40;99.90
34833;DHT22;55941;50.800;4.342;2023-02-21T00:03:39;8.20;99.90
34833;DHT22;55941;50.800;4.342;2023-02-21T00:06:23;8.20;99.90
34833;DHT22;55941;50.800;4.342;2023-02-21T00:09:07;8.10;99.90
34833;DHT22;55941;50.800;4.342;2023-02-21T00:11:51;8.10;99.90
34833;DHT22;55941;50.800;4.342;2023-02-21T00:14:39;8.10;99.90
34833;DHT22;55941;50.800;4.342;2023-02-21T00:17:23;8.10;99.90
34833;DHT22;55941;50.800;4.342;2023-02-21T00:20:08;8.10;99.90
34833;DHT22;55941;50.800;4.342;2023-02-21T00:22:52;8.10;99.90
34833;DHT22;55941;50.800;4.342;2023-02-21T00:25:36;8.20;99.90
34833;DHT22;55941;50.800;4.342;2023-02-21T00:28:21;8.10;99.90
34833;DHT22;55941;50.800;4.342;2023-02-21T00:31:05;8.30;99.90
34833;DHT22;55941;50.800;4.342;2023-02-21T00:33:49;8.20;99.90
34833;DHT22;55941;50.800;4.342;2023-02-21T00:36:34;8.20;99.90
34833;DHT22;55941;50.800;4.342;2023-02-21T00:39:19;8.10;99.90
34833;DHT22;55941;50.800;4.342;2023-02-21T00:42:03;8.00;99.90
34833;DHT22;55941;50.800;4.342;2023-02-21T00:44:49;8.00;99.90
34833;DHT22;55941;50.800;4.342;2023-02-21T00:47:34;8.10;99.90
34833;DHT22;55941;50.800;4.342;2023-02-21T00:50:18;8.10;99.90
34833;DHT22;55941;50.800;4.342;2023-02-21T00:53:03;8.10;99.90
34833;DHT22;55941;50.800;4.342;2023-02-21T00:55:47;8.10;99.90
34833;DHT22;55941;50.800;4.342;2023-02-21T00:58:31;8.10;99.90
34833;DHT22;55941;50.800;4.342;2023-02-21T01:01:16;8.10;99.90
34833;DHT22;55941;50.800;4.342;2023-02-21T01:04:00;8.30;99.90
34833;DHT22;55941;50.800;4.342;2023-02-21T01:06:44;8.40;99.90
34833;DHT22;55941;50.800;4.342;2023-02-21T01:09:29;8.30;99.90
34833;DHT22;55941;50.800;4.342;2023-02-21T01:12:13;8.40;99.90
34833;DHT22;55941;50.800;4.342;2023-02-21T01:14:58;8.50;99.90
34833;DHT22;55941;50.800;4.342;2023-02-21T01:17:43;8.30;99.90
34833;DHT22;55941;50.800;4.342;2023-02-21T01:20:28;8.10;99.90
34833;DHT22;55941;50.800;4.342;2023-02-21T01:23:12;8.00;99.90
34833;DHT22;55941;50.800;4.342;2023-02-21T01:25:57;7.90;99.90
34833;DHT22;55941;50.800;4.342;2023-02-21T01:28:41;7.90;99.90
34833;DHT22;55941;50.800;4.342;2023-02-21T01:31:25;7.80;99.90
34833;DHT22;55941;50.800;4.342;2023-02-21T01:34:10;7.90;99.90
34833;DHT22;55941;50.800;4.342;2023-02-21T01:36:54;7.90;99.90
34833;DHT22;55941;50.800;4.342;2023-02-21T01:39:38;8.10;99.90
34833;DHT22;55941;50.800;4.342;2023-02-21T01:42:22;8.10;99.90
34833;DHT22;55941;50.800;4.342;2023-02-21T01:45:32;8.00;99.90
34833;DHT22;55941;50.800;4.342;2023-02-21T01:48:23;8.00;99.90
34833;DHT22;55941;50.800;4.342;2023-02-21T01:51:09;8.10;99.90
34833;DHT22;55941;50.800;4.342;2023-02-21T01:53:55;8.20;99.90
34833;DHT22;55941;50.800;4.342;2023-02-21T01:56:40;8.20;99.90
34833;DHT22;55941;50.800;4.342;2023-02-21T01:59:26;8.10;99.90
34833;DHT22;55941;50.800;4.342;2023-02-21T02:05:45;7.90;99.90
34833;DHT22;55941;50.800;4.342;2023-02-21T02:08:31;8.00;99.90
34833;DHT22;55941;50.800;4.342;2023-02-21T02:14:49;8.00;99.90
34833;DHT22;55941;50.800;4.342;2023-02-21T02:20:25;8.20;99.90
34833;DHT22;55941;50.800;4.342;2023-02-21T02:26:11;8.10;99.90
34833;DHT22;55941;50.800;4.342;2023-02-21T02:34:48;8.00;99.90
34833;DHT22;55941;50.800;4.342;2023-02-21T02:43:35;8.10;99.90
34833;DHT22;55941;50.800;4.342;2023-02-21T02:46:26;8.10;99.90
34833;DHT22;55941;50.800;4.342;2023-02-21T02:49:19;8.20;99.90
34833;DHT22;55941;50.800;4.342;2023-02-21T02:51:51;7.80;99.90
34833;DHT22;55941;50.800;4.342;2023-02-21T02:54:20;7.80;99.90
34833;DHT22;55941;50.800;4.342;2023-02-21T02:56:47;7.70;99.90
34833;DHT22;55941;50.800;4.342;2023-02-21T02:59:18;7.80;99.90
34833;DHT22;55941;50.800;4.342;2023-02-21T03:07:25;8.10;99.90
34833;DHT22;55941;50.800;4.342;2023-02-21T03:10:32;8.10;99.90
34833;DHT22;55941;50.800;4.342;2023-02-21T03:15:45;8.30;99.90
34833;DHT22;55941;50.800;4.342;2023-02-21T03:18:28;8.30;99.90
34833;DHT22;55941;50.800;4.342;2023-02-21T03:20:58;8.10;99.90
34833;DHT22;55941;50.800;4.342;2023-02-21T03:23:28;8.00;99.90
34833;DHT22;55941;50.800;4.342;2023-02-21T03:26:02;8.00;99.90
34833;DHT22;55941;50.800;4.342;2023-02-21T03:28:30;8.00;99.90
34833;DHT22;55941;50.800;4.342;2023-02-21T03:30:59;8.10;99.90
34833;DHT22;55941;50.800;4.342;2023-02-21T03:33:27;7.90;99.90
34833;DHT22;55941;50.800;4.342;2023-02-21T03:35:53;7.80;99.90
34833;DHT22;55941;50.800;4.342;2023-02-21T03:38:20;7.80;99.90
34833;DHT22;55941;50.800;4.342;2023-02-21T03:40:49;7.90;99.90
34833;DHT22;55941;50.800;4.342;2023-02-21T03:43:15;8.00;99.90
34833;DHT22;55941;50.800;4.342;2023-02-21T03:45:42;7.80;99.90
34833;DHT22;55941;50.800;4.342;2023-02-21T03:48:08;7.90;99.90
34833;DHT22;55941;50.800;4.342;2023-02-21T03:50:37;7.80;99.90
34833;DHT22;55941;50.800;4.342;2023-02-21T03:53:05;7.80;99.90
34833;DHT22;55941;50.800;4.342;2023-02-21T03:55:31;7.60;99.90
34833;DHT22;55941;50.800;4.342;2023-02-21T03:57:57;7.70;99.90
34833;DHT22;55941;50.800;4.342;2023-02-21T04:00:23;7.70;99.90
34833;DHT22;55941;50.800;4.342;2023-02-21T04:02:49;7.60;99.90
34833;DHT22;55941;50.800;4.342;2023-02-21T04:05:16;7.80;99.90
34833;DHT22;55941;50.800;4.342;2023-02-21T04:07:42;7.90;99.90
34833;DHT22;55941;50.800;4.342;2023-02-21T04:10:08;7.70;99.90
34833;DHT22;55941;50.800;4.342;2023-02-21T04:12:34;7.70;99.90
34833;DHT22;55941;50.800;4.342;2023-02-21T04:15:00;7.70;99.90
34833;DHT22;55941;50.800;4.342;2023-02-21T04:17:26;7.70;99.90
34833;DHT22;55941;50.800;4.342;2023-02-21T04:19:52;7.90;99.90
34833;DHT22;55941;50.800;4.342;2023-02-21T04:22:17;7.90;99.90
34833;DHT22;55941;50.800;4.342;2023-02-21T04:24:43;8.10;99.90
34833;DHT22;55941;50.800;4.342;2023-02-21T04:27:09;8.00;99.90
34833;DHT22;55941;50.800;4.342;2023-02-21T04:29:35;8.00;99.90
34833;DHT22;55941;50.800;4.342;2023-02-21T04:32:02;7.90;99.90
34833;DHT22;55941;50.800;4.342;2023-02-21T04:34:28;8.00;99.90
34833;DHT22;55941;50.800;4.342;2023-02-21T04:36:54;7.80;99.90
34833;DHT22;55941;50.800;4.342;2023-02-21T04:39:20;7.70;99.90
34833;DHT22;55941;50.800;4.342;2023-02-21T04:41:46;7.80;99.90
34833;DHT22;55941;50.800;4.342;2023-02-21T04:44:12;8.00;99.90
34833;DHT22;55941;50.800;4.342;2023-02-21T04:46:38;7.90;99.90
34833;DHT22;55941;50.800;4.342;2023-02-21T04:49:04;7.90;99.90
34833;DHT22;55941;50.800;4.342;2023-02-21T04:51:30;8.00;99.90
34833;DHT22;55941;50.800;4.342;2023-02-21T04:53:56;8.00;99.90
34833;DHT22;55941;50.800;4.342;2023-02-21T04:56:24;8.00;99.90
34833;DHT22;55941;50.800;4.342;2023-02-21T04:58:52;8.00;99.90
34833;DHT22;55941;50.800;4.342;2023-02-21T05:01:19;7.90;99.90
34833;DHT22;55941;50.800;4.342;2023-02-21T05:03:45;7.90;99.90
34833;DHT22;55941;50.800;4.342;2023-02-21T05:06:20;7.90;99.90
34833;DHT22;55941;50.800;4.342;2023-02-21T05:08:46;7.90;99.90
34833;DHT22;55941;50.800;4.342;2023-02-21T05:11:12;8.00;99.90
34833;DHT22;55941;50.800;4.342;2023-02-21T05:13:38;8.00;99.90
34833;DHT22;55941;50.800;4.342;2023-02-21T05:16:04;7.90;99.90
34833;DHT22;55941;50.800;4.342;2023-02-21T05:18:30;7.80;99.90
34833;DHT22;55941;50.800;4.342;2023-02-21T05:21:00;7.80;99.90
34833;DHT22;55941;50.800;4.342;2023-02-21T05:23:26;8.00;99.90
34833;DHT22;55941;50.800;4.342;2023-02-21T05:26:14;7.80;99.90
34833;DHT22;55941;50.800;4.342;2023-02-21T05:28:40;7.80;99.90
34833;DHT22;55941;50.800;4.342;2023-02-21T05:31:07;8.00;99.90
34833;DHT22;55941;50.800;4.342;2023-02-21T05:33:33;8.00;99.90
34833;DHT22;55941;50.800;4.342;2023-02-21T05:35:59;7.80;99.90
34833;DHT22;55941;50.800;4.342;2023-02-21T05:38:25;7.60;99.90
34833;DHT22;55941;50.800;4.342;2023-02-21T05:40:52;7.80;99.90
34833;DHT22;55941;50.800;4.342;2023-02-21T05:43:18;7.80;99.90
34833;DHT22;55941;50.800;4.342;2023-02-21T05:45:43;7.90;99.90
34833;DHT22;55941;50.800;4.342;2023-02-21T05:48:09;7.80;99.90
34833;DHT22;55941;50.800;4.342;2023-02-21T05:50:35;7.70;99.90
34833;DHT22;55941;50.800;4.342;2023-02-21T05:53:04;7.60;99.90
34833;DHT22;55941;50.800;4.342;2023-02-21T05:55:30;7.70;99.90
34833;DHT22;55941;50.800;4.342;2023-02-21T05:57:56;7.80;99.90
34833;DHT22;55941;50.800;4.342;2023-02-21T06:00:28;7.90;99.90
34833;DHT22;55941;50.800;4.342;2023-02-21T06:02:54;7.90;99.90
34833;DHT22;55941;50.800;4.342;2023-02-21T06:05:21;7.80;99.90
34833;DHT22;55941;50.800;4.342;2023-02-21T06:07:47;7.70;99.90
34833;DHT22;55941;50.800;4.342;2023-02-21T06:10:15;7.80;99.90
34833;DHT22;55941;50.800;4.342;2023-02-21T06:12:41;7.90;99.90
34833;DHT22;55941;50.800;4.342;2023-02-21T06:15:07;7.90;99.90
34833;DHT22;55941;50.800;4.342;2023-02-21T06:17:35;7.80;99.90
34833;DHT22;55941;50.800;4.342;2023-02-21T06:20:03;7.80;99.90
34833;DHT22;55941;50.800;4.342;2023-02-21T06:22:29;7.70;99.90
34833;DHT22;55941;50.800;4.342;2023-02-21T06:24:55;7.90;99.90
34833;DHT22;55941;50.800;4.342;2023-02-21T06:27:21;7.90;99.90
34833;DHT22;55941;50.800;4.342;2023-02-21T06:29:47;7.80;99.90
34833;DHT22;55941;50.800;4.342;2023-02-21T06:32:14;7.70;99.90
34833;DHT22;55941;50.800;4.342;2023-02-21T06:34:39;7.70;99.90
34833;DHT22;55941;50.800;4.342;2023-02-21T06:37:07;7.70;99.90
34833;DHT22;55941;50.800;4.342;2023-02-21T06:39:34;7.70;99.90
34833;DHT22;55941;50.800;4.342;2023-02-21T06:42:15;7.50;99.90
34833;DHT22;55941;50.800;4.342;2023-02-21T06:44:44;7.50;99.90
34833;DHT22;55941;50.800;4.342;2023-02-21T06:47:10;7.50;99.90
34833;DHT22;55941;50.800;4.342;2023-02-21T06:49:36;7.50;99.90
34833;DHT22;55941;50.800;4.342;2023-02-21T06:52:01;7.60;99.90
34833;DHT22;55941;50.800;4.342;2023-02-21T06:54:28;7.70;99.90
34833;DHT22;55941;50.800;4.342;2023-02-21T06:56:55;7.80;99.90
34833;DHT22;55941;50.800;4.342;2023-02-21T06:59:21;7.70;99.90
34833;DHT22;55941;50.800;4.342;2023-02-21T07:01:47;7.60;99.90
34833;DHT22;55941;50.800;4.342;2023-02-21T07:04:13;7.70;99.90
34833;DHT22;55941;50.800;4.342;2023-02-21T07:06:39;7.60;99.90
34833;DHT22;55941;50.800;4.342;2023-02-21T07:09:05;7.60;99.90
34833;DHT22;55941;50.800;4.342;2023-02-21T07:11:33;7.60;99.90
34833;DHT22;55941;50.800;4.342;2023-02-21T07:14:00;7.60;99.90
34833;DHT22;55941;50.800;4.342;2023-02-21T07:16:27;7.70;99.90
34833;DHT22;55941;50.800;4.342;2023-02-21T07:18:53;7.70;99.90
34833;DHT22;55941;50.800;4.342;2023-02-21T07:21:20;7.70;99.90
34833;DHT22;55941;50.800;4.342;2023-02-21T07:23:46;7.70;99.90
34833;DHT22;55941;50.800;4.342;2023-02-21T07:26:13;7.70;99.90
34833;DHT22;55941;50.800;4.342;2023-02-21T07:28:41;7.80;99.90
34833;DHT22;55941;50.800;4.342;2023-02-21T07:31:07;7.90;99.90
34833;DHT22;55941;50.800;4.342;2023-02-21T07:33:35;7.80;99.90
34833;DHT22;55941;50.800;4.342;2023-02-21T07:36:02;7.80;99.90
34833;DHT22;55941;50.800;4.342;2023-02-21T07:38:29;7.80;99.90
34833;DHT22;55941;50.800;4.342;2023-02-21T07:41:00;7.70;99.90
34833;DHT22;55941;50.800;4.342;2023-02-21T07:43:28;7.60;99.90
34833;DHT22;55941;50.800;4.342;2023-02-21T07:45:54;7.60;99.90
34833;DHT22;55941;50.800;4.342;2023-02-21T07:48:20;7.70;99.90
34833;DHT22;55941;50.800;4.342;2023-02-21T07:50:46;7.70;99.90
34833;DHT22;55941;50.800;4.342;2023-02-21T07:53:13;7.70;99.90
34833;DHT22;55941;50.800;4.342;2023-02-21T07:55:39;7.70;99.90
34833;DHT22;55941;50.800;4.342;2023-02-21T07:58:05;7.70;99.90
34833;DHT22;55941;50.800;4.342;2023-02-21T08:00:32;7.80;99.90
34833;DHT22;55941;50.800;4.342;2023-02-21T08:02:58;7.90;99.90
34833;DHT22;55941;50.800;4.342;2023-02-21T08:05:24;7.90;99.90
34833;DHT22;55941;50.800;4.342;2023-02-21T08:07:51;7.90;99.90
34833;DHT22;55941;50.800;4.342;2023-02-21T08:10:23;7.90;99.90
34833;DHT22;55941;50.800;4.342;2023-02-21T08:12:49;7.90;99.90
34833;DHT22;55941;50.800;4.342;2023-02-21T08:15:16;7.80;99.90
34833;DHT22;55941;50.800;4.342;2023-02-21T08:17:42;7.80;99.90
34833;DHT22;55941;50.800;4.342;2023-02-21T08:20:09;7.90;99.90
34833;DHT22;55941;50.800;4.342;2023-02-21T08:22:35;8.00;99.90
34833;DHT22;55941;50.800;4.342;2023-02-21T08:25:02;7.90;99.90
34833;DHT22;55941;50.800;4.342;2023-02-21T08:27:28;7.90;99.90
34833;DHT22;55941;50.800;4.342;2023-02-21T08:29:53;7.80;99.90
34833;DHT22;55941;50.800;4.342;2023-02-21T08:32:19;7.70;99.90
34833;DHT22;55941;50.800;4.342;2023-02-21T08:34:52;7.70;99.90
34833;DHT22;55941;50.800;4.342;2023-02-21T08:37:17;7.80;99.90
34833;DHT22;55941;50.800;4.342;2023-02-21T08:39:51;7.90;99.90
34833;DHT22;55941;50.800;4.342;2023-02-21T08:42:20;8.00;99.90
34833;DHT22;55941;50.800;4.342;2023-02-21T08:44:46;7.90;99.90
34833;DHT22;55941;50.800;4.342;2023-02-21T08:47:13;8.00;99.90
34833;DHT22;55941;50.800;4.342;2023-02-21T08:49:42;8.10;99.90
34833;DHT22;55941;50.800;4.342;2023-02-21T08:52:09;8.10;99.90
34833;DHT22;55941;50.800;4.342;2023-02-21T08:54:35;8.30;99.90
34833;DHT22;55941;50.800;4.342;2023-02-21T08:57:01;8.30;99.90
34833;DHT22;55941;50.800;4.342;2023-02-21T08:59:27;8.30;99.90
34833;DHT22;55941;50.800;4.342;2023-02-21T09:01:58;8.30;99.90
34833;DHT22;55941;50.800;4.342;2023-02-21T09:04:24;8.30;99.90
34833;DHT22;55941;50.800;4.342;2023-02-21T09:06:53;8.30;99.90
34833;DHT22;55941;50.800;4.342;2023-02-21T09:09:19;8.30;99.90
34833;DHT22;55941;50.800;4.342;2023-02-21T09:11:45;8.40;99.90
34833;DHT22;55941;50.800;4.342;2023-02-21T09:14:14;8.30;99.90
34833;DHT22;55941;50.800;4.342;2023-02-21T09:16:40;8.10;99.90
34833;DHT22;55941;50.800;4.342;2023-02-21T09:19:07;8.10;99.90
34833;DHT22;55941;50.800;4.342;2023-02-21T09:21:33;8.00;99.90
34833;DHT22;55941;50.800;4.342;2023-02-21T09:23:59;8.10;99.90
34833;DHT22;55941;50.800;4.342;2023-02-21T09:26:27;8.10;99.90
34833;DHT22;55941;50.800;4.342;2023-02-21T09:28:56;8.00;99.90
34833;DHT22;55941;50.800;4.342;2023-02-21T09:31:22;8.00;99.90
34833;DHT22;55941;50.800;4.342;2023-02-21T09:33:48;8.10;99.90
34833;DHT22;55941;50.800;4.342;2023-02-21T09:36:14;8.10;99.90
34833;DHT22;55941;50.800;4.342;2023-02-21T09:38:41;8.10;99.90
34833;DHT22;55941;50.800;4.342;2023-02-21T09:41:10;8.20;99.90
34833;DHT22;55941;50.800;4.342;2023-02-21T09:43:39;8.20;99.90
34833;DHT22;55941;50.800;4.342;2023-02-21T09:49:02;8.20;99.90
34833;DHT22;55941;50.800;4.342;2023-02-21T09:51:30;8.20;99.90
34833;DHT22;55941;50.800;4.342;2023-02-21T09:53:57;8.20;99.90
34833;DHT22;55941;50.800;4.342;2023-02-21T09:56:30;8.50;99.90
34833;DHT22;55941;50.800;4.342;2023-02-21T09:58:58;8.70;99.90
34833;DHT22;55941;50.800;4.342;2023-02-21T10:10:04;8.50;99.90
34833;DHT22;55941;50.800;4.342;2023-02-21T10:12:34;8.40;99.90
34833;DHT22;55941;50.800;4.342;2023-02-21T10:15:19;8.30;99.90
34833;DHT22;55941;50.800;4.342;2023-02-21T10:17:59;8.40;99.90
34833;DHT22;55941;50.800;4.342;2023-02-21T10:20:38;8.50;99.90
34833;DHT22;55941;50.800;4.342;2023-02-21T10:23:16;8.40;99.90
34833;DHT22;55941;50.800;4.342;2023-02-21T10:25:46;8.20;99.90
34833;DHT22;55941;50.800;4.342;2023-02-21T10:28:21;8.10;99.90
34833;DHT22;55941;50.800;4.342;2023-02-21T10:30:49;8.20;99.90
34833;DHT22;55941;50.800;4.342;2023-02-21T10:33:17;8.30;99.90
34833;DHT22;55941;50.800;4.342;2023-02-21T10:35:44;8.40;99.90
34833;DHT22;55941;50.800;4.342;2023-02-21T10:38:13;8.50;99.90
34833;DHT22;55941;50.800;4.342;2023-02-21T10:40:45;8.20;99.90
34833;DHT22;55941;50.800;4.342;2023-02-21T10:43:25;8.30;99.90
34833;DHT22;55941;50.800;4.342;2023-02-21T10:48:35;8.40;99.90
34833;DHT22;55941;50.800;4.342;2023-02-21T10:51:14;8.30;99.90
34833;DHT22;55941;50.800;4.342;2023-02-21T10:53:43;8.40;99.90
34833;DHT22;55941;50.800;4.342;2023-02-21T11:04:06;8.60;99.90
34833;DHT22;55941;50.800;4.342;2023-02-21T11:14:41;8.60;99.90
34833;DHT22;55941;50.800;4.342;2023-02-21T11:17:19;8.70;99.90
34833;DHT22;55941;50.800;4.342;2023-02-21T11:22:22;8.80;99.90
34833;DHT22;55941;50.800;4.342;2023-02-21T11:27:24;9.00;99.90
34833;DHT22;55941;50.800;4.342;2023-02-21T11:29:51;9.00;99.90
34833;DHT22;55941;50.800;4.342;2023-02-21T11:32:33;8.90;99.90
34833;DHT22;55941;50.800;4.342;2023-02-21T11:35:19;8.80;99.90
34833;DHT22;55941;50.800;4.342;2023-02-21T11:38:10;8.90;99.90
34833;DHT22;55941;50.800;4.342;2023-02-21T11:40:44;9.20;99.90
34833;DHT22;55941;50.800;4.342;2023-02-21T11:43:26;9.20;99.90
34833;DHT22;55941;50.800;4.342;2023-02-21T11:46:12;9.20;99.90
34833;DHT22;55941;50.800;4.342;2023-02-21T11:48:57;9.20;99.90
34833;DHT22;55941;50.800;4.342;2023-02-21T11:51:36;9.10;99.90
34833;DHT22;55941;50.800;4.342;2023-02-21T11:54:04;9.10;99.90
34833;DHT22;55941;50.800;4.342;2023-02-21T11:56:43;8.90;99.90
34833;DHT22;55941;50.800;4.342;2023-02-21T12:05:24;8.90;99.90
34833;DHT22;55941;50.800;4.342;2023-02-21T12:16:08;9.20;99.90
34833;DHT22;55941;50.800;4.342;2023-02-21T12:23:57;9.30;99.90
34833;DHT22;55941;50.800;4.342;2023-02-21T12:29:31;9.30;99.90
34833;DHT22;55941;50.800;4.342;2023-02-21T12:35:30;9.50;99.90
34833;DHT22;55941;50.800;4.342;2023-02-21T12:38:13;9.50;99.90
34833;DHT22;55941;50.800;4.342;2023-02-21T12:48:46;9.40;99.90
34833;DHT22;55941;50.800;4.342;2023-02-21T12:51:18;9.50;99.90
34833;DHT22;55941;50.800;4.342;2023-02-21T12:53:53;9.30;99.90
34833;DHT22;55941;50.800;4.342;2023-02-21T12:56:26;9.40;99.90
34833;DHT22;55941;50.800;4.342;2023-02-21T12:59:03;9.40;99.90
34833;DHT22;55941;50.800;4.342;2023-02-21T13:01:42;9.40;99.90
34833;DHT22;55941;50.800;4.342;2023-02-21T13:09:44;9.30;99.90
34833;DHT22;55941;50.800;4.342;2023-02-21T13:12:20;9.40;99.90
34833;DHT22;55941;50.800;4.342;2023-02-21T13:14:51;9.50;99.90
34833;DHT22;55941;50.800;4.342;2023-02-21T13:17:19;9.40;99.90
34833;DHT22;55941;50.800;4.342;2023-02-21T13:19:58;9.40;99.90
34833;DHT22;55941;50.800;4.342;2023-02-21T13:22:45;9.40;99.90
34833;DHT22;55941;50.800;4.342;2023-02-21T13:26:06;9.50;99.90
34833;DHT22;55941;50.800;4.342;2023-02-21T13:28:38;9.60;99.90
34833;DHT22;55941;50.800;4.342;2023-02-21T13:31:05;9.50;99.90
34833;DHT22;55941;50.800;4.342;2023-02-21T13:33:41;9.50;99.90
34833;DHT22;55941;50.800;4.342;2023-02-21T13:36:42;9.40;99.90
34833;DHT22;55941;50.800;4.342;2023-02-21T13:39:16;9.40;99.90
34833;DHT22;55941;50.800;4.342;2023-02-21T13:41:53;9.50;99.90
34833;DHT22;55941;50.800;4.342;2023-02-21T13:44:23;9.50;99.90
34833;DHT22;55941;50.800;4.342;2023-02-21T13:58:21;9.70;99.90
34833;DHT22;55941;50.800;4.342;2023-02-21T14:08:35;9.40;99.90
34833;DHT22;55941;50.800;4.342;2023-02-21T14:13:39;9.60;99.90
34833;DHT22;55941;50.800;4.342;2023-02-21T14:16:15;9.60;99.90
34833;DHT22;55941;50.800;4.342;2023-02-21T14:18:54;9.60;99.90
34833;DHT22;55941;50.800;4.342;2023-02-21T14:21:38;9.70;99.90
34833;DHT22;55941;50.800;4.342;2023-02-21T14:24:21;9.80;99.90
34833;DHT22;55941;50.800;4.342;2023-02-21T14:29:39;10.10;99.90
34833;DHT22;55941;50.800;4.342;2023-02-21T14:37:22;9.80;99.90
34833;DHT22;55941;50.800;4.342;2023-02-21T14:39:52;9.90;99.90
34833;DHT22;55941;50.800;4.342;2023-02-21T14:42:23;9.90;99.90
34833;DHT22;55941;50.800;4.342;2023-02-21T14:50:24;9.80;99.90
34833;DHT22;55941;50.800;4.342;2023-02-21T14:53:08;9.90;99.90
34833;DHT22;55941;50.800;4.342;2023-02-21T15:07:16;9.90;99.90
34833;DHT22;55941;50.800;4.342;2023-02-21T15:09:44;9.80;99.90
34833;DHT22;55941;50.800;4.342;2023-02-21T15:12:16;9.80;99.90
34833;DHT22;55941;50.800;4.342;2023-02-21T15:14:51;9.70;99.90
34833;DHT22;55941;50.800;4.342;2023-02-21T15:17:20;9.80;99.90
34833;DHT22;55941;50.800;4.342;2023-02-21T15:19:47;9.70;99.90
34833;DHT22;55941;50.800;4.342;2023-02-21T15:22:26;9.50;99.90
34833;DHT22;55941;50.800;4.342;2023-02-21T15:25:10;9.60;99.90
34833;DHT22;55941;50.800;4.342;2023-02-21T15:27:52;9.70;99.90
34833;DHT22;55941;50.800;4.342;2023-02-21T15:30:26;9.80;99.90
34833;DHT22;55941;50.800;4.342;2023-02-21T15:33:10;9.90;99.90
34833;DHT22;55941;50.800;4.342;2023-02-21T15:35:40;9.90;99.90
34833;DHT22;55941;50.800;4.342;2023-02-21T15:38:14;10.30;99.90
34833;DHT22;55941;50.800;4.342;2023-02-21T15:40:41;10.40;99.90
34833;DHT22;55941;50.800;4.342;2023-02-21T15:43:07;10.30;99.90
34833;DHT22;55941;50.800;4.342;2023-02-21T15:45:43;10.20;99.90
34833;DHT22;55941;50.800;4.342;2023-02-21T15:48:10;10.20;99.90
34833;DHT22;55941;50.800;4.342;2023-02-21T15:50:38;9.80;99.90
34833;DHT22;55941;50.800;4.342;2023-02-21T15:53:23;9.60;99.90
34833;DHT22;55941;50.800;4.342;2023-02-21T15:55:52;9.60;99.90
34833;DHT22;55941;50.800;4.342;2023-02-21T15:58:21;9.60;99.90
34833;DHT22;55941;50.800;4.342;2023-02-21T16:01:02;9.80;99.90
34833;DHT22;55941;50.800;4.342;2023-02-21T16:03:35;9.60;99.90
34833;DHT22;55941;50.800;4.342;2023-02-21T16:08:58;9.40;99.90
34833;DHT22;55941;50.800;4.342;2023-02-21T16:11:44;9.50;99.90
34833;DHT22;55941;50.800;4.342;2023-02-21T16:14:34;9.60;99.90
34833;DHT22;55941;50.800;4.342;2023-02-21T16:19:48;9.50;99.90
34833;DHT22;55941;50.800;4.342;2023-02-21T16:22:36;9.50;99.90
34833;DHT22;55941;50.800;4.342;2023-02-21T16:25:22;9.60;99.90
34833;DHT22;55941;50.800;4.342;2023-02-21T16:27:52;9.70;99.90
34833;DHT22;55941;50.800;4.342;2023-02-21T16:30:26;9.60;99.90
34833;DHT22;55941;50.800;4.342;2023-02-21T16:32:57;9.60;99.90
34833;DHT22;55941;50.800;4.342;2023-02-21T16:35:26;9.50;99.90
34833;DHT22;55941;50.800;4.342;2023-02-21T16:37:56;9.50;99.90
34833;DHT22;55941;50.800;4.342;2023-02-21T16:40:27;9.40;99.90
34833;DHT22;55941;50.800;4.342;2023-02-21T16:42:54;9.30;99.90
34833;DHT22;55941;50.800;4.342;2023-02-21T16:45:21;9.30;99.90
34833;DHT22;55941;50.800;4.342;2023-02-21T16:47:50;9.20;99.90
34833;DHT22;55941;50.800;4.342;2023-02-21T16:50:23;9.10;99.90
34833;DHT22;55941;50.800;4.342;2023-02-21T16:52:52;9.10;99.90
34833;DHT22;55941;50.800;4.342;2023-02-21T16:55:18;9.10;99.90
34833;DHT22;55941;50.800;4.342;2023-02-21T16:57:49;9.10;99.90
34833;DHT22;55941;50.800;4.342;2023-02-21T17:00:17;9.10;99.90
34833;DHT22;55941;50.800;4.342;2023-02-21T17:02:45;9.10;99.90
34833;DHT22;55941;50.800;4.342;2023-02-21T17:05:11;9.10;99.90
34833;DHT22;55941;50.800;4.342;2023-02-21T17:07:37;9.00;99.90
34833;DHT22;55941;50.800;4.342;2023-02-21T17:10:04;8.80;99.90
34833;DHT22;55941;50.800;4.342;2023-02-21T17:12:30;8.60;99.90
34833;DHT22;55941;50.800;4.342;2023-02-21T17:14:55;8.60;99.90
34833;DHT22;55941;50.800;4.342;2023-02-21T17:17:21;8.50;99.90
34833;DHT22;55941;50.800;4.342;2023-02-21T17:19:47;8.60;99.90
34833;DHT22;55941;50.800;4.342;2023-02-21T17:22:14;8.30;99.90
34833;DHT22;55941;50.800;4.342;2023-02-21T17:24:41;8.10;99.90
34833;DHT22;55941;50.800;4.342;2023-02-21T17:27:07;8.00;99.90
34833;DHT22;55941;50.800;4.342;2023-02-21T17:29:33;7.80;99.90
34833;DHT22;55941;50.800;4.342;2023-02-21T17:31:59;7.80;99.90
34833;DHT22;55941;50.800;4.342;2023-02-21T17:34:34;7.70;99.90
34833;DHT22;55941;50.800;4.342;2023-02-21T17:37:01;7.70;99.90
34833;DHT22;55941;50.800;4.342;2023-02-21T17:39:27;7.60;99.90
34833;DHT22;55941;50.800;4.342;2023-02-21T17:41:53;7.60;99.90
34833;DHT22;55941;50.800;4.342;2023-02-21T17:44:21;7.60;99.90
34833;DHT22;55941;50.800;4.342;2023-02-21T17:46:53;7.50;99.90
34833;DHT22;55941;50.800;4.342;2023-02-21T17:49:23;7.60;99.90
34833;DHT22;55941;50.800;4.342;2023-02-21T17:51:50;7.70;99.90
34833;DHT22;55941;50.800;4.342;2023-02-21T17:54:20;7.50;99.90
34833;DHT22;55941;50.800;4.342;2023-02-21T17:56:46;7.50;99.90
34833;DHT22;55941;50.800;4.342;2023-02-21T17:59:13;7.40;99.90
34833;DHT22;55941;50.800;4.342;2023-02-21T18:01:39;7.40;99.90
34833;DHT22;55941;50.800;4.342;2023-02-21T18:04:06;7.20;99.90
34833;DHT22;55941;50.800;4.342;2023-02-21T18:06:32;7.10;99.90
34833;DHT22;55941;50.800;4.342;2023-02-21T18:08:58;7.10;99.90
34833;DHT22;55941;50.800;4.342;2023-02-21T18:11:25;7.10;99.90
34833;DHT22;55941;50.800;4.342;2023-02-21T18:13:51;7.00;99.90
34833;DHT22;55941;50.800;4.342;2023-02-21T18:16:18;6.90;99.90
34833;DHT22;55941;50.800;4.342;2023-02-21T18:18:44;7.00;99.90
34833;DHT22;55941;50.800;4.342;2023-02-21T18:21:10;6.90;99.90
34833;DHT22;55941;50.800;4.342;2023-02-21T18:23:36;6.90;99.90
34833;DHT22;55941;50.800;4.342;2023-02-21T18:26:02;6.90;99.90
34833;DHT22;55941;50.800;4.342;2023-02-21T18:28:30;6.90;99.90
34833;DHT22;55941;50.800;4.342;2023-02-21T18:30:56;7.00;99.90
34833;DHT22;55941;50.800;4.342;2023-02-21T18:33:24;7.00;99.90
34833;DHT22;55941;50.800;4.342;2023-02-21T18:35:53;7.00;99.90
34833;DHT22;55941;50.800;4.342;2023-02-21T18:38:19;6.80;99.90
34833;DHT22;55941;50.800;4.342;2023-02-21T18:40:45;6.90;99.90
34833;DHT22;55941;50.800;4.342;2023-02-21T18:43:20;6.90;99.90
34833;DHT22;55941;50.800;4.342;2023-02-21T18:45:48;6.90;99.90
34833;DHT22;55941;50.800;4.342;2023-02-21T18:48:14;6.70;99.90
34833;DHT22;55941;50.800;4.342;2023-02-21T18:50:41;6.70;99.90
34833;DHT22;55941;50.800;4.342;2023-02-21T18:53:07;6.70;99.90
34833;DHT22;55941;50.800;4.342;2023-02-21T18:55:33;6.60;99.90